Latest Weather Observations for Esperance

IDW60801

Issued at 6:35 am WST Thursday 23 October 2014 (issued every 30 minutes, with the page automatically refreshed every 10 minutes)

About weather observations | Map of weather stations | Latest weather observations for WA | Other Formats
Station Details ID: 009789 Name: ESPERANCE Lat: -33.83 Lon: 121.89 Height: 25.0 m
Data from the previous 72 hours. | See also: Recent months at Esperance
Date/Time
WST
Temp
°C
App
Temp
°C
Dew
Point
Rel
Hum
%
Delta-T
°C
Wind Press
QNH
hPa
Press
MSL
hPa
Rain
since 9 am
mm
Dir
 
Spd
km/h
Gust
km/h
Spd
kts
Gust
kts
23/06:30am 15.9 14.5 13.4 85 1.4 NW 13 20 7 11 1011.1 1011.1 0.0
23/06:00am 14.6 12.7 13.0 90 0.9 WNW 15 19 8 10 1011.2 1011.2 0.0
23/05:30am 14.1 13.0 13.0 93 0.6 NNW 11 15 6 8 1011.0 1011.0 0.0
23/05:00am 14.3 13.6 13.2 93 0.6 NE 9 13 5 7 1010.1 1010.1 0.0
23/04:30am 14.5 13.0 13.1 91 0.8 ENE 13 19 7 10 1010.0 1010.0 0.0
23/04:00am 14.7 13.3 13.3 91 0.8 E 13 22 7 12 1010.3 1010.3 0.0
23/03:30am 14.9 13.2 13.7 92 0.7 E 15 24 8 13 1010.7 1010.7 0.0
23/03:00am 15.6 14.5 14.4 93 0.7 E 13 19 7 10 1011.3 1011.3 0.0
23/02:30am 16.1 15.0 14.3 89 1.0 E 13 20 7 11 1011.7 1011.7 0.0
23/02:00am 16.4 14.8 13.9 85 1.4 ESE 15 22 8 12 1011.7 1011.7 0.0
23/01:30am 16.6 14.7 14.3 86 1.3 SE 17 24 9 13 1012.2 1012.2 0.0
23/01:00am 16.5 14.6 14.2 86 1.3 SE 17 24 9 13 1012.3 1012.3 0.0
23/12:30am 16.6 14.5 13.6 82 1.7 SE 17 20 9 11 1012.5 1012.5 0.0
23/12:00am 16.8 14.6 13.4 80 1.9 SE 17 26 9 14 1012.7 1012.7 0.0
 
Date/Time
WST
Temp
°C
App
Temp
°C
Dew
Point
Rel
Hum
%
Delta-T
°C
Wind Press
QNH
hPa
Press
MSL
hPa
Rain
since 9 am
mm
Dir
 
Spd
km/h
Gust
km/h
Spd
kts
Gust
kts
22/11:30pm 17.2 14.9 13.1 77 2.3 SSE 17 26 9 14 1012.7 1012.7 0.0
22/11:00pm 16.7 13.9 13.3 80 1.9 NE 20 37 11 20 1012.5 1012.5 0.0
22/10:30pm 16.6 13.4 13.2 80 1.9 NE 22 39 12 21 1011.4 1011.4 0.0
22/10:00pm 16.8 14.0 13.2 79 2.0 NE 20 32 11 17 1012.2 1012.2 0.0
22/09:30pm 17.1 14.6 13.6 80 2.0 ENE 19 33 10 18 1013.0 1013.0 0.0
22/09:00pm 17.2 15.5 13.7 80 2.0 E 15 22 8 12 1013.7 1013.7 0.0
22/08:30pm 17.7 16.1 13.8 78 2.2 ENE 15 24 8 13 1014.5 1014.5 0.0
22/08:00pm 18.5 16.0 14.0 75 2.6 ENE 20 30 11 16 1014.3 1014.3 0.0
22/07:30pm 19.5 16.9 13.7 69 3.3 ENE 20 35 11 19 1014.3 1014.3 0.0
22/07:00pm 20.3 17.7 13.9 66 3.7 ENE 20 28 11 15 1014.2 1014.2 0.0
22/06:30pm 19.4 17.2 15.0 75 2.6 E 20 30 11 16 1014.2 1014.2 0.0
22/06:00pm 19.5 17.4 15.3 76 2.5 ESE 20 28 11 15 1014.5 1014.5 0.0
22/05:30pm 20.1 18.1 15.5 75 2.7 ESE 20 26 11 14 1015.0 1015.0 0.0
22/05:00pm 20.4 18.0 15.5 73 2.9 ESE 22 32 12 17 1015.2 1015.2 0.0
22/04:30pm 20.6 17.8 15.4 72 3.1 ESE 24 32 13 17 1015.5 1015.4 0.0
22/04:00pm 21.3 19.3 15.6 70 3.4 ESE 20 30 11 16 1015.8 1015.7 0.0
22/03:30pm 21.6 18.9 15.6 68 3.6 SE 24 35 13 19 1016.0 1015.9 0.0
22/03:00pm 21.8 18.1 15.0 65 4.0 ESE 28 37 15 20 1016.6 1016.5 0.0
22/02:30pm 22.2 19.5 15.5 66 4.0 ESE 24 33 13 18 1017.1 1017.0 0.0
22/02:00pm 22.2 20.4 15.5 66 4.0 ESE 19 30 10 16 1017.6 1017.5 0.0
22/01:30pm 23.7 20.9 12.7 50 6.3 ENE 19 33 10 18 1018.3 1018.2 0.0
22/01:00pm 23.3 21.3 12.8 51 6.0 ENE 15 28 8 15 1019.7 1019.6 0.0
22/12:30pm 23.4 21.6 13.4 53 5.8 ENE 15 22 8 12 1020.3 1020.2 0.0
22/12:00pm 22.3 19.9 12.8 55 5.4 NE 17 32 9 17 1020.5 1020.4 0.0
22/11:30am 22.3 20.8 13.2 56 5.2 ENE 13 22 7 12 1020.9 1020.8 0.0
22/11:00am 21.4 19.5 13.0 58 4.8 ENE 15 22 8 12 1021.3 1021.2 0.0
22/10:30am 20.1 17.4 12.8 63 4.1 NNE 19 32 10 17 1021.7 1021.6 0.0
22/10:00am 19.2 16.8 12.8 66 3.6 E 17 24 9 13 1021.7 1021.6 0.0
22/09:30am 18.7 15.9 12.6 67 3.4 ENE 19 28 10 15 1022.5 1022.4 0.0
22/09:00am 17.4 14.8 13.1 76 2.4 NE 19 28 10 15 1023.0 1022.9 1.0
22/08:30am 17.0 16.0 13.4 79 2.0 NNE 11 17 6 9 1023.5 1023.4 -
22/08:00am 16.5 15.6 13.8 84 1.5 NE 11 19 6 10 1023.6 1023.5 -
22/07:30am 15.6 15.1 13.8 89 1.0 E 9 13 5 7 1023.6 1023.5 -
22/07:00am 14.1 12.3 13.2 94 0.5 NE 15 22 8 12 1023.7 1023.6 -
22/06:30am 13.0 11.0 12.6 97 0.2 NNE 15 22 8 12 1023.5 1023.4 -
22/06:00am 12.8 11.5 12.6 99 0.1 NNE 11 17 6 9 1023.2 1023.1 -
22/05:30am 12.5 11.1 12.3 99 0.1 NNE 11 15 6 8 1023.1 1023.0 -
22/05:00am 12.6 11.6 12.4 99 0.1 NNE 9 13 5 7 1023.1 1023.0 -
22/04:30am 12.5 11.5 12.3 99 0.1 NNE 9 13 5 7 1022.5 1022.4 -
22/04:00am 13.0 12.1 12.6 97 0.2 NE 9 11 5 6 1022.4 1022.3 -
22/03:30am 13.3 12.5 12.9 97 0.2 E 9 11 5 6 1022.4 1022.3 -
22/03:00am 13.6 12.9 13.1 97 0.3 ENE 9 11 5 6 1022.5 1022.4 0.0
22/02:30am 14.2 13.2 13.3 94 0.5 E 11 15 6 8 1022.5 1022.4 -
22/02:00am 13.4 12.2 12.7 95 0.4 E 11 15 6 8 1022.9 1022.8 -
22/01:30am 13.4 12.9 12.7 95 0.4 NE 7 9 4 5 1023.3 1023.2 -
22/01:00am 13.6 13.1 12.5 93 0.6 NE 7 9 4 5 1023.4 1023.3 -
22/12:30am 13.5 12.7 12.9 96 0.3 ENE 9 11 5 6 1023.5 1023.4 -
22/12:00am 14.0 13.7 13.3 96 0.4 NNE 7 9 4 5 1023.9 1023.8 -
 
Date/Time
WST
Temp
°C
App
Temp
°C
Dew
Point
Rel
Hum
%
Delta-T
°C
Wind Press
QNH
hPa
Press
MSL
hPa
Rain
since 9 am
mm
Dir
 
Spd
km/h
Gust
km/h
Spd
kts
Gust
kts
21/11:30pm 14.2 13.5 13.1 93 0.6 ENE 9 13 5 7 1023.9 1023.8 -
21/11:00pm 14.3 13.9 13.0 92 0.7 ENE 7 9 4 5 1024.4 1024.3 -
21/10:41pm 14.3 14.1 13.6 96 0.4 NNE 7 9 4 5 1024.6 1024.5 -
21/10:37pm 14.3 14.3 13.6 96 0.4 NNE 6 7 3 4 1024.6 1024.5 -
21/10:30pm 14.2 14.3 13.8 97 0.2 NNE 6 7 3 4 1024.7 1024.6 -
21/10:11pm 14.3 14.4 13.9 97 0.2 NNE 6 7 3 4 1025.0 1024.9 -
21/10:05pm 14.3 14.2 13.9 97 0.2 NNE 7 9 4 5 1025.0 1024.9 -
21/10:00pm 14.3 14.2 13.9 97 0.2 N 7 9 4 5 1025.0 1024.9 -
21/09:59pm 14.3 14.2 13.9 97 0.2 N 7 9 4 5 1025.0 1024.9 -
21/09:32pm 14.4 13.9 13.9 97 0.3 N 9 13 5 7 1025.0 1024.9 -
21/09:30pm 14.4 13.9 13.9 97 0.3 N 9 13 5 7 1025.0 1024.9 -
21/09:00pm 14.5 15.6 13.6 94 0.5 CALM 0 0 0 0 1025.2 1025.1 0.4
21/08:30pm 14.7 14.7 13.6 93 0.6 SSE 6 7 3 4 1025.4 1025.3 -
21/08:00pm 14.6 14.7 13.9 96 0.4 SSE 6 9 3 5 1025.2 1025.1 -
21/07:30pm 14.9 14.1 14.0 94 0.5 S 11 20 6 11 1025.0 1024.9 -
21/07:00pm 14.9 14.9 14.2 96 0.4 SSE 7 9 4 5 1024.6 1024.5 -
21/06:48pm 15.0 14.2 14.1 94 0.5 SSE 11 15 6 8 1024.5 1024.4 -
21/06:30pm 15.1 14.4 14.4 96 0.4 SE 11 15 6 8 1024.3 1024.2 -
21/06:21pm 15.4 13.9 14.3 93 0.6 SSE 15 19 8 10 1024.1 1024.0 -
21/06:00pm 15.9 14.8 13.2 84 1.5 SSE 11 15 6 8 1023.9 1023.8 -
21/05:30pm 16.1 14.2 13.0 82 1.7 S 15 22 8 12 1023.5 1023.4 -
21/05:00pm 16.5 14.6 12.9 79 2.0 SSE 15 19 8 10 1023.4 1023.3 -
21/04:30pm 17.1 15.1 12.8 76 2.4 SSE 15 22 8 12 1023.2 1023.1 -
21/04:00pm 17.0 14.7 13.1 78 2.2 S 17 26 9 14 1023.0 1022.9 -
21/03:30pm 17.0 14.0 12.5 75 2.5 SSW 20 26 11 14 1023.0 1022.9 -
21/03:00pm 17.1 14.1 12.6 75 2.5 SSW 20 32 11 17 1022.8 1022.7 0.4
21/02:30pm 17.2 14.5 12.9 76 2.4 S 19 30 10 16 1022.7 1022.6 -
21/02:00pm 18.1 15.3 13.1 72 2.8 S 20 28 11 15 1022.5 1022.4 -
21/01:30pm 18.3 16.0 13.1 71 2.9 S 17 24 9 13 1022.6 1022.5 -
21/01:00pm 19.1 16.1 12.7 66 3.6 SW 20 32 11 17 1022.7 1022.6 0.4
21/12:30pm 18.9 15.7 13.2 69 3.2 WSW 22 28 12 15 1022.8 1022.7 0.4
21/12:00pm 19.4 16.9 14.2 72 3.0 WSW 20 32 11 17 1022.7 1022.6 0.2
21/11:30am 18.1 16.2 14.3 78 2.2 SW 17 24 9 13 1022.7 1022.6 0.2
21/11:00am 17.1 14.9 14.5 85 1.5 WSW 19 32 10 17 1022.7 1022.6 0.2
21/10:30am 17.7 15.5 14.9 84 1.6 WSW 20 32 11 17 1022.8 1022.7 0.2
21/10:00am 17.8 16.3 15.2 85 1.5 WSW 17 24 9 13 1022.6 1022.5 0.2
21/09:30am 17.4 17.3 16.0 91 0.8 W 11 19 6 10 1022.4 1022.3 0.2
21/09:07am 16.3 15.6 15.4 94 0.5 W 13 17 7 9 1022.3 1022.2 0.0
21/09:00am 16.3 16.1 15.6 96 0.4 W 11 19 6 10 1022.3 1022.2 6.4
21/08:30am 15.7 14.9 15.2 97 0.3 WNW 13 20 7 11 1022.0 1021.9 6.2
21/08:00am 15.4 13.4 14.9 97 0.3 WNW 19 24 10 13 1021.6 1021.5 5.6
21/07:56am 15.5 13.4 14.8 96 0.4 NW 19 24 10 13 1021.5 1021.4 5.4
21/07:49am 15.9 14.6 14.9 94 0.6 NW 15 22 8 12 1021.4 1021.3 5.2
21/07:30am 16.4 15.7 15.4 94 0.6 WNW 13 17 7 9 1021.1 1021.0 5.2
21/07:00am 15.6 15.6 15.1 97 0.3 WNW 9 13 5 7 1021.0 1020.9 5.2
21/06:30am 15.6 15.5 14.9 96 0.4 W 9 15 5 8 1020.3 1020.2 5.2
21/06:00am 15.2 15.0 14.7 97 0.3 W 9 13 5 7 1019.8 1019.7 5.2
21/05:30am 15.2 14.5 14.3 94 0.5 SW 11 17 6 9 1019.5 1019.4 5.2
21/05:28am 15.1 14.4 14.4 96 0.4 SW 11 17 6 9 1019.5 1019.4 5.2
21/05:21am 15.2 14.5 14.3 94 0.5 WSW 11 17 6 9 1019.5 1019.4 5.2
21/05:04am 15.1 14.4 14.4 96 0.4 SW 11 17 6 9 1019.2 1019.1 5.0
21/05:01am 15.2 14.5 14.3 94 0.5 SW 11 17 6 9 1019.2 1019.1 5.0
21/05:00am 15.2 14.5 14.3 94 0.5 SW 11 17 6 9 1019.1 1019.0 5.0
21/04:43am 15.3 14.2 14.4 94 0.5 SW 13 19 7 10 1018.9 1018.8 5.0
21/04:30am 15.5 15.2 14.4 93 0.6 WSW 9 17 5 9 1018.8 1018.7 5.0
21/04:06am 15.5 15.3 14.8 96 0.4 WSW 9 17 5 9 1018.4 1018.3 4.8
21/04:00am 15.4 14.8 14.7 96 0.4 WSW 11 15 6 8 1018.3 1018.2 4.8
21/03:39am 15.2 14.0 14.1 93 0.6 WSW 13 19 7 10 1018.1 1018.0 4.2
21/03:30am 15.5 13.4 13.7 89 1.0 WSW 17 22 9 12 1018.1 1018.0 4.2
21/03:00am 15.2 14.6 14.5 96 0.4 WSW 11 17 6 9 1017.7 1017.6 4.0
21/02:45am 15.1 14.0 14.4 96 0.4 WSW 13 20 7 11 1017.6 1017.5 4.0
21/02:30am 15.3 13.5 14.4 94 0.5 WSW 17 26 9 14 1017.7 1017.6 4.0
21/02:20am 15.6 14.2 14.5 93 0.6 WSW 15 24 8 13 1017.6 1017.5 3.8
21/02:09am 15.7 15.2 14.8 94 0.5 WSW 11 22 6 12 1017.5 1017.4 3.8
21/02:00am 15.5 15.0 15.0 97 0.3 W 11 19 6 10 1017.4 1017.3 3.8
21/01:47am 15.5 14.7 15.0 97 0.3 W 13 17 7 9 1017.5 1017.4 3.6
21/01:30am 15.5 14.6 14.8 96 0.4 WNW 13 19 7 10 1017.3 1017.2 3.4
21/01:00am 15.4 14.9 14.9 97 0.3 WNW 11 15 6 8 1017.2 1017.1 3.4
21/12:49am 15.4 14.9 14.9 97 0.3 W 11 19 6 10 1017.2 1017.1 3.4
21/12:30am 15.4 14.4 14.7 96 0.4 W 13 19 7 10 1017.1 1017.0 3.4
21/12:05am 15.6 14.7 14.9 96 0.4 W 13 19 7 10 1017.1 1017.0 3.2
21/12:02am 15.5 14.7 15.0 97 0.3 W 13 20 7 11 1017.0 1016.9 3.2
21/12:00am 15.5 14.7 15.0 97 0.3 WNW 13 20 7 11 1017.0 1016.9 3.2
 
Date/Time
WST
Temp
°C
App
Temp
°C
Dew
Point
Rel
Hum
%
Delta-T
°C
Wind Press
QNH
hPa
Press
MSL
hPa
Rain
since 9 am
mm
Dir
 
Spd
km/h
Gust
km/h
Spd
kts
Gust
kts
20/11:51pm 15.6 14.0 14.9 96 0.4 WNW 17 24 9 13 1017.0 1016.9 3.2
20/11:30pm 15.6 13.6 14.9 96 0.4 WNW 19 24 10 13 1017.1 1017.0 3.2
20/11:03pm 15.5 13.4 14.6 94 0.5 WNW 19 24 10 13 1017.0 1016.9 3.2
20/11:00pm 15.5 13.2 14.6 94 0.5 WNW 20 30 11 16 1017.1 1017.0 3.2
20/10:30pm 15.7 14.1 15.0 96 0.4 WNW 17 24 9 13 1017.2 1017.1 3.2
20/10:24pm 15.7 14.2 15.2 97 0.3 WNW 17 26 9 14 1017.3 1017.2 3.2
20/10:20pm 15.8 13.9 15.1 96 0.4 WNW 19 26 10 14 1017.3 1017.2 3.2
20/10:16pm 15.8 13.9 15.1 96 0.4 WNW 19 26 10 14 1017.2 1017.1 3.2
20/10:04pm 16.0 14.1 15.1 94 0.5 W 19 28 10 15 1017.3 1017.2 3.2
20/10:00pm 16.1 14.2 15.1 94 0.6 W 19 28 10 15 1017.4 1017.3 3.0
20/09:49pm 16.1 14.2 15.1 94 0.6 WNW 19 28 10 15 1017.3 1017.2 3.0
20/09:36pm 16.0 14.4 15.1 94 0.5 WNW 17 28 9 15 1017.3 1017.2 3.0
20/09:30pm 16.1 14.2 15.2 94 0.5 WNW 19 24 10 13 1017.3 1017.2 3.0
20/09:00pm 16.4 14.3 15.2 93 0.7 W 20 30 11 16 1017.5 1017.4 3.0
20/08:53pm 16.3 14.4 15.3 94 0.6 WNW 19 30 10 16 1017.6 1017.5 3.0
20/08:46pm 16.1 14.2 15.2 94 0.5 WNW 19 28 10 15 1017.6 1017.5 3.0
20/08:32pm 16.1 14.6 15.2 94 0.5 WNW 17 26 9 14 1017.6 1017.5 2.8
20/08:30pm 16.2 14.7 15.2 94 0.6 WNW 17 24 9 13 1017.5 1017.4 2.6
20/08:29pm 16.3 14.7 15.1 93 0.7 WNW 17 24 9 13 1017.6 1017.5 2.6
20/08:00pm 16.2 15.0 15.0 93 0.7 WNW 15 20 8 11 1017.0 1016.9 2.4
20/07:30pm 16.6 15.5 15.2 91 0.8 WNW 15 19 8 10 1016.5 1016.4 2.4
20/07:00pm 16.7 16.0 15.3 91 0.8 NW 13 17 7 9 1015.8 1015.7 2.4
20/06:30pm 16.9 17.6 16.1 95 0.5 NW 7 9 4 5 1015.5 1015.4 2.4
20/06:00pm 17.1 18.2 15.7 91 0.8 N 4 9 2 5 1015.0 1015.0 2.4
20/05:30pm 17.8 19.7 15.8 88 1.2 CALM 0 0 0 0 1014.3 1014.3 2.4
20/05:00pm 17.2 17.6 15.3 88 1.1 ENE 7 9 4 5 1013.9 1013.9 2.4
20/04:30pm 17.1 16.6 14.9 87 1.3 ESE 11 15 6 8 1013.4 1013.4 2.2
20/04:00pm 17.7 17.5 15.8 89 1.1 SSE 11 15 6 8 1013.2 1013.2 2.2
20/03:42pm 17.1 17.6 15.6 91 0.9 W 7 13 4 7 1013.2 1013.2 2.0
20/03:30pm 18.1 14.9 14.3 78 2.2 NNW 24 33 13 18 1012.9 1012.9 0.6
20/03:00pm 20.7 17.6 11.5 55 5.1 NW 19 24 10 13 1012.5 1012.5 0.2
20/02:30pm 19.6 14.8 11.6 60 4.4 NW 28 39 15 21 1012.6 1012.6 0.2
20/02:00pm 20.8 16.5 10.7 52 5.5 NNW 24 35 13 19 1012.4 1012.4 0.2
20/01:30pm 21.5 16.8 10.8 50 5.9 NNW 26 39 14 21 1012.4 1012.4 0.2
20/01:00pm 20.4 15.7 10.7 53 5.3 NW 26 37 14 20 1012.6 1012.6 0.2
20/12:30pm 22.6 18.2 10.4 46 6.7 NW 24 35 13 19 1012.4 1012.4 0.2
20/12:00pm 21.3 16.8 10.0 48 6.1 NW 24 35 13 19 1012.4 1012.4 0.2
20/11:30am 20.9 17.3 10.7 52 5.6 NW 20 35 11 19 1012.5 1012.5 0.2
20/11:00am 21.0 17.2 11.0 52 5.5 WNW 22 32 12 17 1012.6 1012.6 0.2
20/10:30am 21.1 17.5 12.0 56 5.1 NW 22 32 12 17 1012.6 1012.6 0.2
20/10:00am 20.2 16.5 12.6 61 4.3 NW 24 37 13 20 1012.9 1012.9 0.0
20/09:30am 19.4 15.5 12.0 62 4.1 NW 24 32 13 17 1013.0 1013.0 0.0
20/09:00am 19.3 16.5 13.3 68 3.4 NW 20 28 11 15 1013.3 1013.3 42.0
20/08:30am 18.2 15.5 13.4 73 2.7 NW 20 26 11 14 1013.4 1013.4 42.0
20/08:00am 17.0 14.1 12.9 77 2.3 N 20 30 11 16 1013.5 1013.5 42.0
20/07:30am 16.0 13.2 12.7 81 1.8 N 19 26 10 14 1013.5 1013.5 42.0
20/07:00am 15.0 12.1 12.8 87 1.2 N 20 30 11 16 1013.6 1013.6 42.0
20/06:47am 14.7 12.3 12.7 88 1.1 N 17 28 9 15 1013.8 1013.8 42.0

Other Formats:

Comma delimited format used in spreadsheet applications
http://www.bom.gov.au/fwo/IDW60801/IDW60801.94638.axf

JavaScript Object Notation format (JSON) in row-major order
http://www.bom.gov.au/fwo/IDW60801/IDW60801.94638.json